sensor_id;sensor_type;location;lat;lon;timestamp;temperature;humidity
64718;DHT22;62506;46.070;14.492;2023-08-08T00:01:18;23.70;55.10
64718;DHT22;62506;46.070;14.492;2023-08-08T00:03:43;23.70;55.10
64718;DHT22;62506;46.070;14.492;2023-08-08T00:06:09;23.70;55.30
64718;DHT22;62506;46.070;14.492;2023-08-08T00:08:34;23.70;55.10
64718;DHT22;62506;46.070;14.492;2023-08-08T00:11:00;23.80;55.10
64718;DHT22;62506;46.070;14.492;2023-08-08T00:13:25;23.80;55.00
64718;DHT22;62506;46.070;14.492;2023-08-08T00:15:51;23.80;55.10
64718;DHT22;62506;46.070;14.492;2023-08-08T00:18:16;23.80;55.00
64718;DHT22;62506;46.070;14.492;2023-08-08T00:20:42;23.80;55.00
64718;DHT22;62506;46.070;14.492;2023-08-08T00:23:08;23.80;54.90
64718;DHT22;62506;46.070;14.492;2023-08-08T00:25:33;23.80;55.00
64718;DHT22;62506;46.070;14.492;2023-08-08T00:27:59;23.70;54.80
64718;DHT22;62506;46.070;14.492;2023-08-08T00:30:24;23.70;54.90
64718;DHT22;62506;46.070;14.492;2023-08-08T00:32:50;23.70;55.10
64718;DHT22;62506;46.070;14.492;2023-08-08T00:35:15;23.70;55.10
64718;DHT22;62506;46.070;14.492;2023-08-08T00:37:41;23.70;54.90
64718;DHT22;62506;46.070;14.492;2023-08-08T00:40:07;23.70;55.70
64718;DHT22;62506;46.070;14.492;2023-08-08T00:42:32;23.70;54.90
64718;DHT22;62506;46.070;14.492;2023-08-08T00:44:58;23.70;54.80
64718;DHT22;62506;46.070;14.492;2023-08-08T00:47:29;23.70;54.80
64718;DHT22;62506;46.070;14.492;2023-08-08T00:49:55;23.70;54.70
64718;DHT22;62506;46.070;14.492;2023-08-08T00:52:21;23.70;54.80
64718;DHT22;62506;46.070;14.492;2023-08-08T00:54:47;23.70;54.80
64718;DHT22;62506;46.070;14.492;2023-08-08T00:57:12;23.70;54.70
64718;DHT22;62506;46.070;14.492;2023-08-08T00:59:38;23.70;54.60
64718;DHT22;62506;46.070;14.492;2023-08-08T01:02:04;23.70;54.60
64718;DHT22;62506;46.070;14.492;2023-08-08T01:04:29;23.70;54.50
64718;DHT22;62506;46.070;14.492;2023-08-08T01:07:01;23.70;54.50
64718;DHT22;62506;46.070;14.492;2023-08-08T01:09:40;23.70;54.60
64718;DHT22;62506;46.070;14.492;2023-08-08T01:12:07;23.70;54.50
64718;DHT22;62506;46.070;14.492;2023-08-08T01:14:34;23.70;54.50
64718;DHT22;62506;46.070;14.492;2023-08-08T01:17:00;23.70;54.40
64718;DHT22;62506;46.070;14.492;2023-08-08T01:19:29;23.70;54.40
64718;DHT22;62506;46.070;14.492;2023-08-08T01:21:57;23.70;54.60
64718;DHT22;62506;46.070;14.492;2023-08-08T01:24:24;23.70;54.60
64718;DHT22;62506;46.070;14.492;2023-08-08T01:26:55;23.70;54.30
64718;DHT22;62506;46.070;14.492;2023-08-08T01:29:21;23.70;54.40
64718;DHT22;62506;46.070;14.492;2023-08-08T01:31:46;23.70;54.50
64718;DHT22;62506;46.070;14.492;2023-08-08T01:34:12;23.70;54.30
64718;DHT22;62506;46.070;14.492;2023-08-08T01:36:46;23.70;54.30
64718;DHT22;62506;46.070;14.492;2023-08-08T01:39:14;23.70;54.20
64718;DHT22;62506;46.070;14.492;2023-08-08T01:41:42;23.70;54.20
64718;DHT22;62506;46.070;14.492;2023-08-08T01:44:10;23.70;54.10
64718;DHT22;62506;46.070;14.492;2023-08-08T01:46:36;23.60;54.00
64718;DHT22;62506;46.070;14.492;2023-08-08T01:49:03;23.60;54.00
64718;DHT22;62506;46.070;14.492;2023-08-08T01:51:29;23.60;54.10
64718;DHT22;62506;46.070;14.492;2023-08-08T01:53:55;23.60;54.00
64718;DHT22;62506;46.070;14.492;2023-08-08T01:56:20;23.60;54.10
64718;DHT22;62506;46.070;14.492;2023-08-08T01:58:46;23.60;54.00
64718;DHT22;62506;46.070;14.492;2023-08-08T02:01:11;23.60;54.00
64718;DHT22;62506;46.070;14.492;2023-08-08T02:03:37;23.60;54.00
64718;DHT22;62506;46.070;14.492;2023-08-08T02:06:02;23.60;54.00
64718;DHT22;62506;46.070;14.492;2023-08-08T02:08:28;23.60;54.00
64718;DHT22;62506;46.070;14.492;2023-08-08T02:10:54;23.50;54.00
64718;DHT22;62506;46.070;14.492;2023-08-08T02:13:19;23.60;53.80
64718;DHT22;62506;46.070;14.492;2023-08-08T02:15:45;23.50;53.90
64718;DHT22;62506;46.070;14.492;2023-08-08T02:18:10;23.50;53.70
64718;DHT22;62506;46.070;14.492;2023-08-08T02:20:36;23.50;53.70
64718;DHT22;62506;46.070;14.492;2023-08-08T02:23:02;23.50;53.80
64718;DHT22;62506;46.070;14.492;2023-08-08T02:25:28;23.50;53.70
64718;DHT22;62506;46.070;14.492;2023-08-08T02:27:53;23.50;53.60
64718;DHT22;62506;46.070;14.492;2023-08-08T02:30:19;23.50;53.60
64718;DHT22;62506;46.070;14.492;2023-08-08T02:32:44;23.60;53.70
64718;DHT22;62506;46.070;14.492;2023-08-08T02:35:10;23.50;53.60
64718;DHT22;62506;46.070;14.492;2023-08-08T02:37:35;23.50;53.50
64718;DHT22;62506;46.070;14.492;2023-08-08T02:40:01;23.60;53.60
64718;DHT22;62506;46.070;14.492;2023-08-08T02:42:26;23.50;53.50
64718;DHT22;62506;46.070;14.492;2023-08-08T02:44:52;23.50;53.60
64718;DHT22;62506;46.070;14.492;2023-08-08T02:47:18;23.50;53.60
64718;DHT22;62506;46.070;14.492;2023-08-08T02:49:43;23.50;53.70
64718;DHT22;62506;46.070;14.492;2023-08-08T02:52:09;23.50;53.70
64718;DHT22;62506;46.070;14.492;2023-08-08T02:54:34;23.50;53.70
64718;DHT22;62506;46.070;14.492;2023-08-08T02:57:00;23.60;53.80
64718;DHT22;62506;46.070;14.492;2023-08-08T02:59:25;23.50;53.60
64718;DHT22;62506;46.070;14.492;2023-08-08T03:01:51;23.50;53.70
64718;DHT22;62506;46.070;14.492;2023-08-08T03:04:17;23.50;53.90
64718;DHT22;62506;46.070;14.492;2023-08-08T03:06:43;23.50;53.90
64718;DHT22;62506;46.070;14.492;2023-08-08T03:09:08;23.50;54.00
64718;DHT22;62506;46.070;14.492;2023-08-08T03:11:34;23.50;54.00
64718;DHT22;62506;46.070;14.492;2023-08-08T03:13:59;23.50;54.00
64718;DHT22;62506;46.070;14.492;2023-08-08T03:16:25;23.50;54.00
64718;DHT22;62506;46.070;14.492;2023-08-08T03:18:50;23.50;54.00
64718;DHT22;62506;46.070;14.492;2023-08-08T03:21:16;23.50;54.10
64718;DHT22;62506;46.070;14.492;2023-08-08T03:23:41;23.50;54.00
64718;DHT22;62506;46.070;14.492;2023-08-08T03:26:07;23.50;53.90
64718;DHT22;62506;46.070;14.492;2023-08-08T03:28:32;23.50;54.00
64718;DHT22;62506;46.070;14.492;2023-08-08T03:30:58;23.50;54.10
64718;DHT22;62506;46.070;14.492;2023-08-08T03:33:28;23.50;54.00
64718;DHT22;62506;46.070;14.492;2023-08-08T03:35:54;23.50;54.00
64718;DHT22;62506;46.070;14.492;2023-08-08T03:38:19;23.50;54.00
64718;DHT22;62506;46.070;14.492;2023-08-08T03:40:45;23.50;54.00
64718;DHT22;62506;46.070;14.492;2023-08-08T03:43:10;23.50;54.10
64718;DHT22;62506;46.070;14.492;2023-08-08T03:45:36;23.50;54.10
64718;DHT22;62506;46.070;14.492;2023-08-08T03:48:01;23.50;54.10
64718;DHT22;62506;46.070;14.492;2023-08-08T03:50:27;23.50;54.10
64718;DHT22;62506;46.070;14.492;2023-08-08T03:52:53;23.50;54.10
64718;DHT22;62506;46.070;14.492;2023-08-08T03:55:19;23.50;54.10
64718;DHT22;62506;46.070;14.492;2023-08-08T03:57:44;23.50;54.10
64718;DHT22;62506;46.070;14.492;2023-08-08T04:00:10;23.50;54.10
64718;DHT22;62506;46.070;14.492;2023-08-08T04:02:36;23.50;54.00
64718;DHT22;62506;46.070;14.492;2023-08-08T04:05:02;23.50;54.00
64718;DHT22;62506;46.070;14.492;2023-08-08T04:07:28;23.50;54.00
64718;DHT22;62506;46.070;14.492;2023-08-08T04:09:53;23.50;54.10
64718;DHT22;62506;46.070;14.492;2023-08-08T04:12:19;23.50;54.00
64718;DHT22;62506;46.070;14.492;2023-08-08T04:14:44;23.60;54.10
64718;DHT22;62506;46.070;14.492;2023-08-08T04:17:10;23.60;54.20
64718;DHT22;62506;46.070;14.492;2023-08-08T04:19:35;23.60;54.40
64718;DHT22;62506;46.070;14.492;2023-08-08T04:22:01;23.60;54.50
64718;DHT22;62506;46.070;14.492;2023-08-08T04:24:26;23.60;54.50
64718;DHT22;62506;46.070;14.492;2023-08-08T04:26:52;23.60;54.40
64718;DHT22;62506;46.070;14.492;2023-08-08T04:29:34;23.60;54.60
64718;DHT22;62506;46.070;14.492;2023-08-08T04:32:00;23.60;55.10
64718;DHT22;62506;46.070;14.492;2023-08-08T04:34:26;23.60;55.30
64718;DHT22;62506;46.070;14.492;2023-08-08T04:36:51;23.60;55.40
64718;DHT22;62506;46.070;14.492;2023-08-08T04:39:17;23.60;55.60
64718;DHT22;62506;46.070;14.492;2023-08-08T04:41:42;23.60;55.50
64718;DHT22;62506;46.070;14.492;2023-08-08T04:44:08;23.60;55.30
64718;DHT22;62506;46.070;14.492;2023-08-08T04:46:33;23.60;55.30
64718;DHT22;62506;46.070;14.492;2023-08-08T04:48:59;23.60;55.60
64718;DHT22;62506;46.070;14.492;2023-08-08T04:51:24;23.60;55.70
64718;DHT22;62506;46.070;14.492;2023-08-08T04:53:50;23.60;55.40
64718;DHT22;62506;46.070;14.492;2023-08-08T04:56:15;23.60;55.70
64718;DHT22;62506;46.070;14.492;2023-08-08T04:58:41;23.70;55.30
64718;DHT22;62506;46.070;14.492;2023-08-08T05:01:06;23.70;55.40
64718;DHT22;62506;46.070;14.492;2023-08-08T05:03:34;23.70;55.30
64718;DHT22;62506;46.070;14.492;2023-08-08T05:05:59;23.60;55.40
64718;DHT22;62506;46.070;14.492;2023-08-08T05:08:25;23.60;55.50
64718;DHT22;62506;46.070;14.492;2023-08-08T05:10:51;23.60;55.60
64718;DHT22;62506;46.070;14.492;2023-08-08T05:13:16;23.60;55.20
64718;DHT22;62506;46.070;14.492;2023-08-08T05:15:42;23.60;55.20
64718;DHT22;62506;46.070;14.492;2023-08-08T05:18:07;23.60;55.10
64718;DHT22;62506;46.070;14.492;2023-08-08T05:20:33;23.60;54.80
64718;DHT22;62506;46.070;14.492;2023-08-08T05:22:58;23.60;54.70
64718;DHT22;62506;46.070;14.492;2023-08-08T05:25:24;23.60;54.80
64718;DHT22;62506;46.070;14.492;2023-08-08T05:27:49;23.60;54.70
64718;DHT22;62506;46.070;14.492;2023-08-08T05:30:15;23.60;54.50
64718;DHT22;62506;46.070;14.492;2023-08-08T05:32:41;23.60;54.60
64718;DHT22;62506;46.070;14.492;2023-08-08T05:35:06;23.60;54.80
64718;DHT22;62506;46.070;14.492;2023-08-08T05:37:32;23.60;54.70
64718;DHT22;62506;46.070;14.492;2023-08-08T05:39:58;23.60;54.70
64718;DHT22;62506;46.070;14.492;2023-08-08T05:42:23;23.60;54.70
64718;DHT22;62506;46.070;14.492;2023-08-08T05:44:49;23.60;54.70
64718;DHT22;62506;46.070;14.492;2023-08-08T05:47:14;23.60;55.40
64718;DHT22;62506;46.070;14.492;2023-08-08T05:49:40;23.60;54.70
64718;DHT22;62506;46.070;14.492;2023-08-08T05:52:08;23.60;54.80
64718;DHT22;62506;46.070;14.492;2023-08-08T05:54:34;23.60;54.70
64718;DHT22;62506;46.070;14.492;2023-08-08T05:57:00;23.60;54.80
64718;DHT22;62506;46.070;14.492;2023-08-08T05:59:25;23.60;54.80
64718;DHT22;62506;46.070;14.492;2023-08-08T06:01:51;23.60;54.60
64718;DHT22;62506;46.070;14.492;2023-08-08T06:04:17;23.60;54.50
64718;DHT22;62506;46.070;14.492;2023-08-08T06:06:42;23.70;54.50
64718;DHT22;62506;46.070;14.492;2023-08-08T06:09:08;23.70;54.60
64718;DHT22;62506;46.070;14.492;2023-08-08T06:11:34;23.70;54.50
64718;DHT22;62506;46.070;14.492;2023-08-08T06:13:59;23.70;54.60
64718;DHT22;62506;46.070;14.492;2023-08-08T06:16:25;23.70;54.70
64718;DHT22;62506;46.070;14.492;2023-08-08T06:18:51;23.70;54.30
64718;DHT22;62506;46.070;14.492;2023-08-08T06:21:17;23.70;54.20
64718;DHT22;62506;46.070;14.492;2023-08-08T06:23:42;23.70;54.20
64718;DHT22;62506;46.070;14.492;2023-08-08T06:26:08;23.80;54.10
64718;DHT22;62506;46.070;14.492;2023-08-08T06:28:34;23.90;53.90
64718;DHT22;62506;46.070;14.492;2023-08-08T06:31:00;23.90;53.70
64718;DHT22;62506;46.070;14.492;2023-08-08T06:33:26;24.00;53.30
64718;DHT22;62506;46.070;14.492;2023-08-08T06:35:51;23.80;50.40
64718;DHT22;62506;46.070;14.492;2023-08-08T06:38:17;23.50;50.10
64718;DHT22;62506;46.070;14.492;2023-08-08T06:40:43;23.30;50.50
64718;DHT22;62506;46.070;14.492;2023-08-08T06:43:08;23.20;50.60
64718;DHT22;62506;46.070;14.492;2023-08-08T06:45:34;23.00;51.00
64718;DHT22;62506;46.070;14.492;2023-08-08T06:48:00;22.90;51.40
64718;DHT22;62506;46.070;14.492;2023-08-08T06:50:25;22.90;51.30
64718;DHT22;62506;46.070;14.492;2023-08-08T06:52:51;22.80;51.50
64718;DHT22;62506;46.070;14.492;2023-08-08T06:55:16;22.70;51.50
64718;DHT22;62506;46.070;14.492;2023-08-08T06:57:42;22.50;52.10
64718;DHT22;62506;46.070;14.492;2023-08-08T07:00:08;22.40;51.80
64718;DHT22;62506;46.070;14.492;2023-08-08T07:02:34;22.30;52.00
64718;DHT22;62506;46.070;14.492;2023-08-08T07:04:59;22.30;52.00
64718;DHT22;62506;46.070;14.492;2023-08-08T07:07:25;22.20;52.00
64718;DHT22;62506;46.070;14.492;2023-08-08T07:09:53;22.20;52.20
64718;DHT22;62506;46.070;14.492;2023-08-08T07:12:18;22.30;52.10
64718;DHT22;62506;46.070;14.492;2023-08-08T07:14:44;22.20;51.60
64718;DHT22;62506;46.070;14.492;2023-08-08T07:17:09;22.20;51.80
64718;DHT22;62506;46.070;14.492;2023-08-08T07:19:35;22.00;52.10
64718;DHT22;62506;46.070;14.492;2023-08-08T07:22:01;22.10;51.80
64718;DHT22;62506;46.070;14.492;2023-08-08T07:24:27;22.10;52.00
64718;DHT22;62506;46.070;14.492;2023-08-08T07:26:58;21.90;52.10
64718;DHT22;62506;46.070;14.492;2023-08-08T07:29:31;21.90;52.70
64718;DHT22;62506;46.070;14.492;2023-08-08T07:31:57;21.70;52.90
64718;DHT22;62506;46.070;14.492;2023-08-08T07:34:29;21.80;52.70
64718;DHT22;62506;46.070;14.492;2023-08-08T07:36:55;21.80;52.20
64718;DHT22;62506;46.070;14.492;2023-08-08T07:39:23;21.70;52.40
64718;DHT22;62506;46.070;14.492;2023-08-08T07:41:49;21.90;51.90
64718;DHT22;62506;46.070;14.492;2023-08-08T07:44:15;21.90;52.00
64718;DHT22;62506;46.070;14.492;2023-08-08T07:46:41;22.20;51.80
64718;DHT22;62506;46.070;14.492;2023-08-08T07:49:06;22.40;51.00
64718;DHT22;62506;46.070;14.492;2023-08-08T07:51:32;22.40;50.40
64718;DHT22;62506;46.070;14.492;2023-08-08T07:53:58;22.40;50.60
64718;DHT22;62506;46.070;14.492;2023-08-08T07:56:23;22.50;50.40
64718;DHT22;62506;46.070;14.492;2023-08-08T07:58:49;22.50;50.30
64718;DHT22;62506;46.070;14.492;2023-08-08T08:01:15;22.50;50.10
64718;DHT22;62506;46.070;14.492;2023-08-08T08:03:43;22.50;50.00
64718;DHT22;62506;46.070;14.492;2023-08-08T08:06:09;22.50;50.20
64718;DHT22;62506;46.070;14.492;2023-08-08T08:08:42;22.50;50.20
64718;DHT22;62506;46.070;14.492;2023-08-08T08:11:19;22.60;49.70
64718;DHT22;62506;46.070;14.492;2023-08-08T08:13:45;22.50;49.50
64718;DHT22;62506;46.070;14.492;2023-08-08T08:16:13;22.50;49.80
64718;DHT22;62506;46.070;14.492;2023-08-08T08:18:39;22.50;49.60
64718;DHT22;62506;46.070;14.492;2023-08-08T08:21:05;22.40;50.60
64718;DHT22;62506;46.070;14.492;2023-08-08T08:23:30;22.30;49.90
64718;DHT22;62506;46.070;14.492;2023-08-08T08:26:01;22.00;50.30
64718;DHT22;62506;46.070;14.492;2023-08-08T08:28:27;21.80;50.60
64718;DHT22;62506;46.070;14.492;2023-08-08T08:30:56;21.70;50.60
64718;DHT22;62506;46.070;14.492;2023-08-08T08:33:24;21.80;50.70
64718;DHT22;62506;46.070;14.492;2023-08-08T08:35:55;22.00;50.20
64718;DHT22;62506;46.070;14.492;2023-08-08T08:38:20;22.20;50.10
64718;DHT22;62506;46.070;14.492;2023-08-08T08:40:46;22.20;49.60
64718;DHT22;62506;46.070;14.492;2023-08-08T08:43:13;22.30;49.60
64718;DHT22;62506;46.070;14.492;2023-08-08T08:45:40;22.40;49.20
64718;DHT22;62506;46.070;14.492;2023-08-08T08:48:10;22.40;49.80
64718;DHT22;62506;46.070;14.492;2023-08-08T08:50:37;22.40;50.60
64718;DHT22;62506;46.070;14.492;2023-08-08T08:53:04;22.40;50.00
64718;DHT22;62506;46.070;14.492;2023-08-08T08:55:30;22.40;49.90
64718;DHT22;62506;46.070;14.492;2023-08-08T08:57:55;22.40;49.80
64718;DHT22;62506;46.070;14.492;2023-08-08T09:00:21;22.50;49.60
64718;DHT22;62506;46.070;14.492;2023-08-08T09:02:48;22.50;49.60
64718;DHT22;62506;46.070;14.492;2023-08-08T09:05:13;22.50;49.80
64718;DHT22;62506;46.070;14.492;2023-08-08T09:07:40;22.50;49.90
64718;DHT22;62506;46.070;14.492;2023-08-08T09:10:06;22.50;49.80
64718;DHT22;62506;46.070;14.492;2023-08-08T09:12:32;22.50;49.50
64718;DHT22;62506;46.070;14.492;2023-08-08T09:14:58;22.50;49.40
64718;DHT22;62506;46.070;14.492;2023-08-08T09:17:25;22.50;48.90
64718;DHT22;62506;46.070;14.492;2023-08-08T09:19:52;22.50;48.70
64718;DHT22;62506;46.070;14.492;2023-08-08T09:22:18;22.50;49.00
64718;DHT22;62506;46.070;14.492;2023-08-08T09:24:44;22.50;48.90
64718;DHT22;62506;46.070;14.492;2023-08-08T09:27:11;22.50;48.20
64718;DHT22;62506;46.070;14.492;2023-08-08T09:29:37;22.50;48.70
64718;DHT22;62506;46.070;14.492;2023-08-08T09:32:03;22.50;49.30
64718;DHT22;62506;46.070;14.492;2023-08-08T09:34:29;22.60;49.20
64718;DHT22;62506;46.070;14.492;2023-08-08T09:36:55;22.60;49.30
64718;DHT22;62506;46.070;14.492;2023-08-08T09:39:20;22.60;49.00
64718;DHT22;62506;46.070;14.492;2023-08-08T09:41:46;22.70;48.80
64718;DHT22;62506;46.070;14.492;2023-08-08T09:44:12;22.60;48.80
64718;DHT22;62506;46.070;14.492;2023-08-08T09:46:38;22.60;48.60
64718;DHT22;62506;46.070;14.492;2023-08-08T09:49:04;22.60;48.90
64718;DHT22;62506;46.070;14.492;2023-08-08T09:51:30;22.60;49.60
64718;DHT22;62506;46.070;14.492;2023-08-08T09:53:56;22.60;50.20
64718;DHT22;62506;46.070;14.492;2023-08-08T09:56:23;22.60;50.40
64718;DHT22;62506;46.070;14.492;2023-08-08T09:58:49;22.60;50.70
64718;DHT22;62506;46.070;14.492;2023-08-08T10:01:15;22.60;50.70
64718;DHT22;62506;46.070;14.492;2023-08-08T10:03:41;22.60;50.90
64718;DHT22;62506;46.070;14.492;2023-08-08T10:06:08;22.70;50.60
64718;DHT22;62506;46.070;14.492;2023-08-08T10:08:34;22.80;50.40
64718;DHT22;62506;46.070;14.492;2023-08-08T10:11:06;22.80;50.50
64718;DHT22;62506;46.070;14.492;2023-08-08T10:13:49;22.80;50.10
64718;DHT22;62506;46.070;14.492;2023-08-08T10:16:18;22.80;49.70
64718;DHT22;62506;46.070;14.492;2023-08-08T10:18:45;22.80;50.00
64718;DHT22;62506;46.070;14.492;2023-08-08T10:21:12;22.80;50.40
64718;DHT22;62506;46.070;14.492;2023-08-08T10:23:38;22.90;50.90
64718;DHT22;62506;46.070;14.492;2023-08-08T10:26:18;22.90;51.10
64718;DHT22;62506;46.070;14.492;2023-08-08T10:28:57;22.90;50.50
64718;DHT22;62506;46.070;14.492;2023-08-08T10:31:26;22.90;50.10
64718;DHT22;62506;46.070;14.492;2023-08-08T10:34:03;23.00;50.70
64718;DHT22;62506;46.070;14.492;2023-08-08T10:36:49;23.00;51.00
64718;DHT22;62506;46.070;14.492;2023-08-08T10:39:16;23.00;51.20
64718;DHT22;62506;46.070;14.492;2023-08-08T10:41:46;23.00;50.60
64718;DHT22;62506;46.070;14.492;2023-08-08T10:44:12;23.00;50.30
64718;DHT22;62506;46.070;14.492;2023-08-08T10:46:39;23.10;50.10
64718;DHT22;62506;46.070;14.492;2023-08-08T10:49:05;23.10;50.00
64718;DHT22;62506;46.070;14.492;2023-08-08T10:51:32;23.10;50.00
64718;DHT22;62506;46.070;14.492;2023-08-08T10:53:58;23.10;50.30
64718;DHT22;62506;46.070;14.492;2023-08-08T10:56:23;23.10;51.50
64718;DHT22;62506;46.070;14.492;2023-08-08T10:58:49;23.10;51.80
64718;DHT22;62506;46.070;14.492;2023-08-08T11:01:15;23.10;52.00
64718;DHT22;62506;46.070;14.492;2023-08-08T11:03:42;23.20;51.70
64718;DHT22;62506;46.070;14.492;2023-08-08T11:06:08;23.10;50.00
64718;DHT22;62506;46.070;14.492;2023-08-08T11:08:34;23.10;49.60
64718;DHT22;62506;46.070;14.492;2023-08-08T11:11:01;23.10;49.90
64718;DHT22;62506;46.070;14.492;2023-08-08T11:13:27;23.10;49.80
64718;DHT22;62506;46.070;14.492;2023-08-08T11:15:53;23.20;49.80
64718;DHT22;62506;46.070;14.492;2023-08-08T11:18:19;23.20;50.20
64718;DHT22;62506;46.070;14.492;2023-08-08T11:20:44;23.20;50.00
64718;DHT22;62506;46.070;14.492;2023-08-08T11:23:10;23.20;50.10
64718;DHT22;62506;46.070;14.492;2023-08-08T11:25:39;23.20;50.70
64718;DHT22;62506;46.070;14.492;2023-08-08T11:28:11;23.20;51.10
64718;DHT22;62506;46.070;14.492;2023-08-08T11:30:43;23.30;51.30
64718;DHT22;62506;46.070;14.492;2023-08-08T11:33:16;23.30;50.90
64718;DHT22;62506;46.070;14.492;2023-08-08T11:35:44;23.30;50.40
64718;DHT22;62506;46.070;14.492;2023-08-08T11:38:11;23.30;49.90
64718;DHT22;62506;46.070;14.492;2023-08-08T11:40:38;23.30;51.00
64718;DHT22;62506;46.070;14.492;2023-08-08T11:43:03;23.30;51.60
64718;DHT22;62506;46.070;14.492;2023-08-08T11:45:29;23.30;51.60
64718;DHT22;62506;46.070;14.492;2023-08-08T11:47:56;23.30;51.70
64718;DHT22;62506;46.070;14.492;2023-08-08T11:50:23;23.30;51.90
64718;DHT22;62506;46.070;14.492;2023-08-08T11:52:49;23.40;52.00
64718;DHT22;62506;46.070;14.492;2023-08-08T11:55:15;23.30;52.10
64718;DHT22;62506;46.070;14.492;2023-08-08T11:57:41;23.40;52.60
64718;DHT22;62506;46.070;14.492;2023-08-08T12:00:08;23.40;52.40
64718;DHT22;62506;46.070;14.492;2023-08-08T12:02:34;23.40;52.40
64718;DHT22;62506;46.070;14.492;2023-08-08T12:05:06;23.40;52.40
64718;DHT22;62506;46.070;14.492;2023-08-08T12:07:33;23.40;52.30
64718;DHT22;62506;46.070;14.492;2023-08-08T12:09:59;23.40;51.80
64718;DHT22;62506;46.070;14.492;2023-08-08T12:12:28;23.40;51.80
64718;DHT22;62506;46.070;14.492;2023-08-08T12:14:54;23.40;51.00
64718;DHT22;62506;46.070;14.492;2023-08-08T12:17:22;23.40;51.30
64718;DHT22;62506;46.070;14.492;2023-08-08T12:19:48;23.40;51.60
64718;DHT22;62506;46.070;14.492;2023-08-08T12:22:14;23.40;50.40
64718;DHT22;62506;46.070;14.492;2023-08-08T12:24:39;23.40;50.60
64718;DHT22;62506;46.070;14.492;2023-08-08T12:27:05;23.30;51.00
64718;DHT22;62506;46.070;14.492;2023-08-08T12:29:31;23.40;50.60
64718;DHT22;62506;46.070;14.492;2023-08-08T12:31:56;23.40;49.70
64718;DHT22;62506;46.070;14.492;2023-08-08T12:34:33;23.30;49.40
64718;DHT22;62506;46.070;14.492;2023-08-08T12:36:58;23.40;49.20
64718;DHT22;62506;46.070;14.492;2023-08-08T12:39:24;23.30;48.90
64718;DHT22;62506;46.070;14.492;2023-08-08T12:41:49;23.30;49.10
64718;DHT22;62506;46.070;14.492;2023-08-08T12:44:15;23.30;49.40
64718;DHT22;62506;46.070;14.492;2023-08-08T12:46:41;23.40;48.80
64718;DHT22;62506;46.070;14.492;2023-08-08T12:49:06;23.30;48.80
64718;DHT22;62506;46.070;14.492;2023-08-08T12:51:32;23.40;48.90
64718;DHT22;62506;46.070;14.492;2023-08-08T12:53:58;23.40;49.10
64718;DHT22;62506;46.070;14.492;2023-08-08T12:56:24;23.40;49.20
64718;DHT22;62506;46.070;14.492;2023-08-08T12:58:49;23.40;49.20
64718;DHT22;62506;46.070;14.492;2023-08-08T13:01:15;23.40;49.30
64718;DHT22;62506;46.070;14.492;2023-08-08T13:03:41;23.40;49.60
64718;DHT22;62506;46.070;14.492;2023-08-08T13:06:06;23.40;49.70
64718;DHT22;62506;46.070;14.492;2023-08-08T13:08:32;23.40;49.80
64718;DHT22;62506;46.070;14.492;2023-08-08T13:10:58;23.40;50.00
64718;DHT22;62506;46.070;14.492;2023-08-08T13:13:23;23.40;50.00
64718;DHT22;62506;46.070;14.492;2023-08-08T13:15:51;23.40;50.30
64718;DHT22;62506;46.070;14.492;2023-08-08T13:18:16;23.40;50.40
64718;DHT22;62506;46.070;14.492;2023-08-08T13:20:42;23.40;50.40
64718;DHT22;62506;46.070;14.492;2023-08-08T13:23:07;23.40;50.70
64718;DHT22;62506;46.070;14.492;2023-08-08T13:25:34;23.40;50.70
64718;DHT22;62506;46.070;14.492;2023-08-08T13:28:00;23.40;50.70
64718;DHT22;62506;46.070;14.492;2023-08-08T13:30:26;23.40;50.90
64718;DHT22;62506;46.070;14.492;2023-08-08T13:32:52;23.40;49.50
64718;DHT22;62506;46.070;14.492;2023-08-08T13:35:17;23.40;49.40
64718;DHT22;62506;46.070;14.492;2023-08-08T13:37:43;23.40;49.60
64718;DHT22;62506;46.070;14.492;2023-08-08T13:40:10;23.40;49.00
64718;DHT22;62506;46.070;14.492;2023-08-08T13:42:36;23.40;47.80
64718;DHT22;62506;46.070;14.492;2023-08-08T13:45:02;23.40;47.90
64718;DHT22;62506;46.070;14.492;2023-08-08T13:47:27;23.30;48.00
64718;DHT22;62506;46.070;14.492;2023-08-08T13:49:53;23.40;48.30
64718;DHT22;62506;46.070;14.492;2023-08-08T13:52:18;23.40;48.90
64718;DHT22;62506;46.070;14.492;2023-08-08T13:54:44;23.40;49.50
64718;DHT22;62506;46.070;14.492;2023-08-08T13:57:09;23.40;49.70
64718;DHT22;62506;46.070;14.492;2023-08-08T13:59:35;23.50;50.30
64718;DHT22;62506;46.070;14.492;2023-08-08T14:02:00;23.40;50.40
64718;DHT22;62506;46.070;14.492;2023-08-08T14:04:26;23.50;50.70
64718;DHT22;62506;46.070;14.492;2023-08-08T14:06:51;23.50;50.90
64718;DHT22;62506;46.070;14.492;2023-08-08T14:09:17;23.50;51.00
64718;DHT22;62506;46.070;14.492;2023-08-08T14:11:43;23.50;51.20
64718;DHT22;62506;46.070;14.492;2023-08-08T14:14:08;23.50;51.10
64718;DHT22;62506;46.070;14.492;2023-08-08T14:16:34;23.50;51.30
64718;DHT22;62506;46.070;14.492;2023-08-08T14:19:00;23.50;51.40
64718;DHT22;62506;46.070;14.492;2023-08-08T14:21:25;23.50;51.40
64718;DHT22;62506;46.070;14.492;2023-08-08T14:23:51;23.50;51.60
64718;DHT22;62506;46.070;14.492;2023-08-08T14:26:16;23.50;51.60
64718;DHT22;62506;46.070;14.492;2023-08-08T14:28:42;23.50;51.70
64718;DHT22;62506;46.070;14.492;2023-08-08T14:31:07;23.50;51.90
64718;DHT22;62506;46.070;14.492;2023-08-08T14:33:33;23.60;52.70
64718;DHT22;62506;46.070;14.492;2023-08-08T14:35:59;23.60;51.70
64718;DHT22;62506;46.070;14.492;2023-08-08T14:38:24;23.60;51.50
64718;DHT22;62506;46.070;14.492;2023-08-08T14:40:51;23.60;50.90
64718;DHT22;62506;46.070;14.492;2023-08-08T14:43:18;23.60;50.10
64718;DHT22;62506;46.070;14.492;2023-08-08T14:45:44;23.50;49.20
64718;DHT22;62506;46.070;14.492;2023-08-08T14:48:09;23.50;49.40
64718;DHT22;62506;46.070;14.492;2023-08-08T14:50:35;23.50;49.60
64718;DHT22;62506;46.070;14.492;2023-08-08T14:53:00;23.50;49.90
64718;DHT22;62506;46.070;14.492;2023-08-08T14:55:26;23.70;49.70
64718;DHT22;62506;46.070;14.492;2023-08-08T14:57:52;23.70;50.10
64718;DHT22;62506;46.070;14.492;2023-08-08T15:00:17;23.70;50.20
64718;DHT22;62506;46.070;14.492;2023-08-08T15:02:43;23.70;50.10
64718;DHT22;62506;46.070;14.492;2023-08-08T15:05:09;23.70;49.10
64718;DHT22;62506;46.070;14.492;2023-08-08T15:07:34;23.70;49.30
64718;DHT22;62506;46.070;14.492;2023-08-08T15:10:00;23.60;49.50